Time;durP1;ratioP1;P1;durP2;ratioP2;P2;SDS_P1;SDS_P2;PMS_P1;PMS_P2;Temp;Humidity;BMP_temperature;BMP_pressure;BME280_temperature;BME280_humidity;BME280_pressure;Samples;Min_cycle;Max_cycle;Signal;HPM_P1;HPM_P2
2021/10/19 00:01:29;;;;;;;8.43;6.17;;;9.20;99.90;;;;;;4996516;28;20177;-91
2021/10/19 00:03:55;;;;;;;10.30;6.03;;;9.20;99.90;;;;;;4996423;28;20425;-92
2021/10/19 00:06:20;;;;;;;8.33;5.50;;;9.20;99.90;;;;;;4996443;28;20170;-87
2021/10/19 00:08:46;;;;;;;10.17;6.27;;;9.20;99.90;;;;;;4979533;28;20180;-94
2021/10/19 00:11:11;;;;;;;9.50;6.07;;;9.20;99.90;;;;;;4979334;28;20187;-87
2021/10/19 00:13:38;;;;;;;10.77;6.30;;;9.30;99.90;;;;;;4995811;28;20186;-94
2021/10/19 00:16:06;;;;;;;10.33;6.67;;;9.40;99.90;;;;;;4996638;28;20172;-93
2021/10/19 00:18:32;;;;;;;9.73;5.33;;;9.40;99.90;;;;;;4996559;28;20461;-95
2021/10/19 00:20:58;;;;;;;7.87;6.40;;;9.20;99.90;;;;;;4979319;28;20515;-96
2021/10/19 00:23:23;;;;;;;12.00;6.83;;;9.20;99.90;;;;;;4996675;28;20176;-93
2021/10/19 00:25:49;;;;;;;9.90;6.40;;;9.20;99.90;;;;;;4979572;28;20224;-94
2021/10/19 00:28:14;;;;;;;7.93;6.20;;;9.30;99.90;;;;;;4996193;28;20171;-92
2021/10/19 00:30:40;;;;;;;7.60;6.07;;;9.20;99.90;;;;;;4996453;28;20176;-93
2021/10/19 00:33:09;;;;;;;10.00;6.00;;;9.30;99.90;;;;;;4978679;28;20222;-94
2021/10/19 00:35:35;;;;;;;10.43;6.10;;;9.30;99.90;;;;;;4996453;28;20171;-90
2021/10/19 00:38:00;;;;;;;8.20;5.87;;;9.30;99.90;;;;;;4978948;28;20601;-92
2021/10/19 00:40:26;;;;;;;7.90;5.73;;;9.40;99.90;;;;;;4996071;28;20167;-92
2021/10/19 00:42:55;;;;;;;13.47;8.13;;;9.30;99.90;;;;;;4995965;28;20293;-92
2021/10/19 00:45:21;;;;;;;9.20;6.93;;;9.20;99.90;;;;;;4978742;28;20962;-94
2021/10/19 00:47:49;;;;;;;12.63;7.40;;;9.30;99.90;;;;;;4996176;28;20539;-94
2021/10/19 00:50:16;;;;;;;11.93;7.47;;;9.40;99.90;;;;;;4978643;28;20176;-92
2021/10/19 00:52:41;;;;;;;11.50;8.10;;;9.50;99.90;;;;;;4996024;28;20443;-92
2021/10/19 00:55:08;;;;;;;8.53;6.10;;;9.40;99.90;;;;;;4996031;28;20494;-93
2021/10/19 00:57:34;;;;;;;10.40;7.03;;;9.40;99.90;;;;;;4976824;28;20172;-95
2021/10/19 00:59:59;;;;;;;9.17;7.60;;;9.40;99.90;;;;;;4995006;28;20520;-94
2021/10/19 01:02:28;;;;;;;9.77;8.50;;;9.40;99.90;;;;;;4978621;28;20566;-94
2021/10/19 01:04:54;;;;;;;9.03;5.93;;;9.40;99.90;;;;;;4995704;28;20171;-96
2021/10/19 01:07:20;;;;;;;9.70;7.40;;;9.50;99.90;;;;;;4995355;28;20414;-94
2021/10/19 01:09:46;;;;;;;10.03;6.77;;;9.40;99.90;;;;;;4978403;28;20178;-95
2021/10/19 01:12:13;;;;;;;9.67;7.67;;;9.40;99.90;;;;;;4995703;28;20902;-93
2021/10/19 01:14:38;;;;;;;10.30;6.77;;;9.40;99.90;;;;;;4995046;28;20182;-92
2021/10/19 01:17:04;;;;;;;9.00;7.27;;;9.50;99.90;;;;;;4995283;28;20771;-94
2021/10/19 01:19:32;;;;;;;7.50;6.10;;;9.40;99.90;;;;;;4977848;28;20634;-93
2021/10/19 01:22:02;;;;;;;9.80;7.13;;;9.50;99.90;;;;;;4995251;28;20411;-92
2021/10/19 01:24:28;;;;;;;9.53;7.43;;;9.50;99.90;;;;;;4995207;28;20422;-93
2021/10/19 01:26:54;;;;;;;12.47;8.13;;;9.80;99.90;;;;;;4977979;28;20433;-92
2021/10/19 01:29:20;;;;;;;11.13;7.47;;;9.50;99.90;;;;;;4995149;28;20166;-91
2021/10/19 01:31:47;;;;;;;10.30;7.27;;;9.60;99.90;;;;;;4996012;28;20858;-93
2021/10/19 01:34:14;;;;;;;11.33;7.37;;;9.50;99.90;;;;;;4994997;28;20170;-92
2021/10/19 01:36:43;;;;;;;8.63;7.40;;;9.50;99.90;;;;;;4994934;28;20411;-92
2021/10/19 01:39:09;;;;;;;11.53;7.83;;;9.50;99.90;;;;;;4995253;28;20494;-92
2021/10/19 01:41:35;;;;;;;10.80;7.83;;;9.60;99.90;;;;;;4993025;28;20442;-90
2021/10/19 01:44:01;;;;;;;9.77;6.50;;;9.50;99.90;;;;;;4994376;28;20465;-92
2021/10/19 01:46:27;;;;;;;11.73;6.73;;;9.40;99.90;;;;;;4994587;28;20208;-90
2021/10/19 01:48:56;;;;;;;11.63;8.30;;;9.40;99.90;;;;;;4994927;28;20174;-92
2021/10/19 01:51:23;;;;;;;8.03;5.30;;;9.50;99.90;;;;;;4994736;28;20628;-90
2021/10/19 01:53:49;;;;;;;10.93;6.83;;;9.50;99.90;;;;;;4994614;28;20420;-90
2021/10/19 01:56:15;;;;;;;9.47;6.20;;;9.50;99.90;;;;;;4994700;28;20415;-85
2021/10/19 01:58:40;;;;;;;12.87;8.10;;;9.50;99.90;;;;;;4977474;28;20807;-91
2021/10/19 02:01:06;;;;;;;11.80;7.47;;;9.50;99.90;;;;;;4994510;28;20658;-93
2021/10/19 02:03:32;;;;;;;8.47;6.93;;;9.50;99.90;;;;;;4994672;28;20178;-94
2021/10/19 02:05:57;;;;;;;8.80;6.63;;;9.50;99.90;;;;;;4994943;28;20172;-94
2021/10/19 02:08:23;;;;;;;13.17;7.53;;;9.50;99.90;;;;;;4995060;28;20180;-93
2021/10/19 02:10:49;;;;;;;10.30;6.90;;;9.60;99.90;;;;;;4994748;28;20205;-93
2021/10/19 02:13:14;;;;;;;9.47;6.67;;;9.60;99.90;;;;;;4977117;28;20189;-94
2021/10/19 02:15:41;;;;;;;10.60;7.20;;;9.60;99.90;;;;;;4994812;28;20171;-95
2021/10/19 02:18:07;;;;;;;8.63;6.87;;;9.60;99.90;;;;;;4994435;28;20221;-94
2021/10/19 02:20:34;;;;;;;10.50;7.70;;;9.70;99.90;;;;;;4998875;28;20414;-93
2021/10/19 02:22:59;;;;;;;9.90;7.37;;;9.60;99.90;;;;;;4998562;28;20422;-94
2021/10/19 02:25:25;;;;;;;11.60;7.97;;;9.60;99.90;;;;;;4981544;28;20937;-95
2021/10/19 02:27:51;;;;;;;11.70;7.73;;;9.60;99.90;;;;;;4998624;28;20523;-93
2021/10/19 02:30:18;;;;;;;10.23;6.40;;;9.70;99.90;;;;;;4998362;28;20422;-93
2021/10/19 02:32:43;;;;;;;11.60;8.33;;;9.70;99.90;;;;;;4981271;28;20662;-94
2021/10/19 02:35:11;;;;;;;13.10;9.60;;;9.80;99.90;;;;;;4981473;28;20410;-94
2021/10/19 02:37:38;;;;;;;10.87;8.50;;;9.70;99.90;;;;;;4998394;28;20194;-94
2021/10/19 02:40:05;;;;;;;13.17;8.47;;;9.70;99.90;;;;;;4998677;28;20932;-94
2021/10/19 02:42:30;;;;;;;12.53;7.80;;;9.70;99.90;;;;;;4998264;28;20459;-94
2021/10/19 02:44:56;;;;;;;11.93;8.70;;;9.80;99.90;;;;;;4981495;28;20434;-93
2021/10/19 02:47:22;;;;;;;14.30;8.37;;;9.80;99.90;;;;;;4981145;28;20644;-93
2021/10/19 02:49:47;;;;;;;11.67;6.90;;;9.80;99.90;;;;;;4999169;28;20170;-94
2021/10/19 02:52:13;;;;;;;11.67;9.30;;;9.80;99.90;;;;;;4999355;28;20655;-94
2021/10/19 02:54:39;;;;;;;14.30;9.40;;;9.80;99.90;;;;;;4997822;28;20617;-94
2021/10/19 02:57:04;;;;;;;12.33;9.23;;;9.70;99.90;;;;;;4997724;28;20270;-94
2021/10/19 02:59:30;;;;;;;11.50;8.30;;;9.80;99.90;;;;;;4997471;28;20208;-93
2021/10/19 03:01:56;;;;;;;11.97;8.70;;;9.70;99.90;;;;;;4998486;28;20207;-94
2021/10/19 03:04:21;;;;;;;12.47;8.27;;;9.80;99.90;;;;;;4997777;28;20651;-92
2021/10/19 03:06:47;;;;;;;11.53;8.17;;;9.80;99.90;;;;;;4997892;28;20185;-93
2021/10/19 03:09:12;;;;;;;11.80;8.87;;;9.80;99.90;;;;;;4997777;28;20210;-90
2021/10/19 03:11:38;;;;;;;14.43;9.50;;;9.80;99.90;;;;;;4997918;28;20175;-91
2021/10/19 03:14:04;;;;;;;12.60;9.30;;;9.80;99.90;;;;;;4997516;28;20641;-94
2021/10/19 03:16:29;;;;;;;14.27;11.00;;;9.70;99.90;;;;;;4980707;28;20200;-90
2021/10/19 03:18:55;;;;;;;12.37;9.43;;;9.70;99.90;;;;;;4980484;28;20220;-92
2021/10/19 03:21:20;;;;;;;15.90;10.07;;;9.70;99.90;;;;;;4980474;28;20180;-92
2021/10/19 03:23:46;;;;;;;14.33;9.50;;;9.60;99.90;;;;;;4997333;28;20698;-93
2021/10/19 03:26:12;;;;;;;16.87;10.43;;;9.60;99.90;;;;;;4980377;28;20177;-92
2021/10/19 03:28:38;;;;;;;15.50;10.80;;;9.60;99.90;;;;;;4980056;28;20187;-93
2021/10/19 03:31:04;;;;;;;29.93;11.40;;;9.60;99.90;;;;;;4997204;28;20414;-91
2021/10/19 03:33:30;;;;;;;13.60;9.80;;;9.70;99.90;;;;;;4980099;28;20494;-93
2021/10/19 03:35:55;;;;;;;15.50;9.87;;;9.70;99.90;;;;;;4997493;28;20202;-92
2021/10/19 03:38:21;;;;;;;14.67;9.90;;;9.80;99.90;;;;;;4997346;28;20216;-93
2021/10/19 03:40:47;;;;;;;15.57;11.00;;;9.80;99.90;;;;;;4979704;28;20209;-93
2021/10/19 03:43:12;;;;;;;13.40;9.07;;;9.70;99.90;;;;;;4996734;28;20616;-93
2021/10/19 03:45:38;;;;;;;18.17;10.87;;;9.80;99.90;;;;;;4997406;28;20414;-94
2021/10/19 03:48:04;;;;;;;14.93;9.90;;;9.80;99.90;;;;;;4997266;28;20672;-93
2021/10/19 03:50:29;;;;;;;18.87;9.83;;;10.00;99.90;;;;;;4996902;28;20200;-92
2021/10/19 03:52:57;;;;;;;14.60;10.20;;;9.80;99.90;;;;;;4997021;28;20237;-92
2021/10/19 03:55:23;;;;;;;16.70;10.67;;;9.80;99.90;;;;;;4996955;28;20178;-92
2021/10/19 03:57:49;;;;;;;13.53;9.10;;;9.90;99.90;;;;;;4996539;28;20512;-92
2021/10/19 04:00:15;;;;;;;21.07;11.10;;;9.90;99.90;;;;;;4996775;28;20420;-93
2021/10/19 04:02:40;;;;;;;15.03;10.70;;;9.90;99.90;;;;;;4997004;28;20203;-92
2021/10/19 04:05:07;;;;;;;17.07;10.27;;;9.90;99.90;;;;;;4996907;28;20190;-93
2021/10/19 04:07:32;;;;;;;14.67;10.23;;;9.90;99.90;;;;;;4996861;28;20258;-94
2021/10/19 04:09:58;;;;;;;18.40;11.27;;;10.00;99.90;;;;;;4996707;28;20462;-92
2021/10/19 04:12:23;;;;;;;15.07;9.57;;;9.90;99.90;;;;;;4996903;28;20205;-91
2021/10/19 04:14:49;;;;;;;19.60;11.40;;;9.90;99.90;;;;;;4996649;28;20176;-92
2021/10/19 04:17:16;;;;;;;16.70;12.70;;;9.90;99.90;;;;;;4996468;28;20234;-94
2021/10/19 04:19:42;;;;;;;13.50;10.57;;;10.00;99.90;;;;;;4996457;28;20679;-93
2021/10/19 04:22:07;;;;;;;14.70;10.43;;;10.00;99.90;;;;;;4996739;28;20415;-91
2021/10/19 04:24:33;;;;;;;16.77;10.33;;;9.90;99.90;;;;;;4996503;28;20187;-92
2021/10/19 04:26:59;;;;;;;15.40;10.10;;;9.90;99.90;;;;;;4996375;28;20172;-95
2021/10/19 04:29:24;;;;;;;15.00;11.00;;;10.00;99.90;;;;;;4996046;28;20172;-92
2021/10/19 04:31:50;;;;;;;16.57;11.60;;;10.00;99.90;;;;;;4979120;28;20208;-93
2021/10/19 04:34:15;;;;;;;16.83;10.90;;;9.90;99.90;;;;;;4996517;28;20222;-90
2021/10/19 04:36:41;;;;;;;16.77;11.20;;;9.90;99.90;;;;;;4995983;28;20230;-92
2021/10/19 04:39:07;;;;;;;16.20;11.60;;;10.00;99.90;;;;;;4996252;28;20210;-90
2021/10/19 04:41:32;;;;;;;16.73;10.77;;;9.90;99.90;;;;;;4995540;28;20707;-92
2021/10/19 04:43:58;;;;;;;16.20;10.17;;;9.90;99.90;;;;;;4995496;28;20561;-92
2021/10/19 04:46:24;;;;;;;15.17;10.70;;;;;;;;;;4996191;28;20176;-96
2021/10/19 04:48:49;;;;;;;14.33;10.00;;;9.90;99.90;;;;;;4995780;28;20641;-93
2021/10/19 04:51:15;;;;;;;17.77;11.07;;;9.90;99.90;;;;;;4997180;28;20497;-95
2021/10/19 04:53:40;;;;;;;18.87;11.73;;;9.90;99.90;;;;;;4995874;28;20246;-95
2021/10/19 04:56:06;;;;;;;18.23;12.43;;;9.90;99.90;;;;;;4996301;28;20182;-93
2021/10/19 04:58:33;;;;;;;15.50;10.97;;;10.00;99.90;;;;;;4995741;28;20211;-93
2021/10/19 05:00:59;;;;;;;16.30;11.43;;;10.10;99.90;;;;;;4996413;28;20457;-93
2021/10/19 05:03:25;;;;;;;18.77;10.80;;;10.10;99.90;;;;;;4995956;28;20447;-93
2021/10/19 05:05:51;;;;;;;19.87;12.60;;;10.00;99.90;;;;;;4996093;28;20838;-95
2021/10/19 05:08:16;;;;;;;17.30;12.17;;;10.10;99.90;;;;;;4996225;28;20176;-92
2021/10/19 05:10:45;;;;;;;18.63;11.13;;;10.10;99.90;;;;;;4995685;28;20958;-93
2021/10/19 05:13:11;;;;;;;18.53;11.80;;;10.20;99.90;;;;;;4995608;28;20173;-94
2021/10/19 05:15:37;;;;;;;20.17;13.10;;;10.20;99.90;;;;;;4979249;28;20500;-93
2021/10/19 05:18:03;;;;;;;16.83;10.47;;;10.20;99.90;;;;;;5000774;28;20497;-94
2021/10/19 05:20:29;;;;;;;18.30;11.63;;;10.30;99.90;;;;;;5003096;28;20817;-96
2021/10/19 05:22:56;;;;;;;18.67;12.13;;;10.30;99.90;;;;;;5002744;28;20185;-94
2021/10/19 05:25:23;;;;;;;20.50;13.10;;;10.30;99.90;;;;;;5000230;28;20170;-95
2021/10/19 05:27:51;;;;;;;17.70;11.70;;;10.40;99.90;;;;;;4982903;28;20464;-94
2021/10/19 05:30:17;;;;;;;22.00;13.70;;;10.50;99.90;;;;;;5000765;28;20422;-94
2021/10/19 05:32:43;;;;;;;16.80;11.30;;;10.50;99.90;;;;;;4997266;28;20170;-94
2021/10/19 05:35:09;;;;;;;17.50;12.03;;;10.40;99.90;;;;;;4997081;28;20424;-95
2021/10/19 05:37:35;;;;;;;14.20;10.80;;;10.40;99.90;;;;;;4999072;28;20417;-96
2021/10/19 05:40:01;;;;;;;19.30;13.17;;;10.40;99.90;;;;;;4983343;28;20457;-95
2021/10/19 05:42:27;;;;;;;21.30;12.07;;;10.40;99.90;;;;;;4995396;28;20222;-95
2021/10/19 05:44:52;;;;;;;16.70;11.60;;;10.40;99.90;;;;;;4995271;28;20414;-92
2021/10/19 05:47:18;;;;;;;19.03;12.33;;;10.40;99.90;;;;;;4995930;28;20250;-94
2021/10/19 05:49:44;;;;;;;18.97;13.10;;;10.40;99.90;;;;;;4995469;28;20624;-92
2021/10/19 05:52:10;;;;;;;20.77;13.70;;;10.50;99.90;;;;;;4977683;28;20434;-94
2021/10/19 05:54:35;;;;;;;18.90;12.90;;;10.40;99.90;;;;;;4996344;28;20181;-92
2021/10/19 05:57:01;;;;;;;21.47;11.80;;;10.40;99.90;;;;;;4996268;28;20199;-93
2021/10/19 05:59:26;;;;;;;21.50;14.27;;;10.50;99.90;;;;;;4996800;28;20201;-92
2021/10/19 06:01:52;;;;;;;23.67;16.10;;;10.50;99.90;;;;;;4998269;28;20172;-89
2021/10/19 06:04:18;;;;;;;17.90;11.47;;;10.50;99.90;;;;;;5015742;28;20178;-85
2021/10/19 06:06:54;;;;;;;22.90;13.53;;;10.50;99.90;;;;;;5017354;28;20170;-85
2021/10/19 06:09:20;;;;;;;22.70;13.50;;;10.50;99.90;;;;;;5015413;28;20197;-95
2021/10/19 06:11:45;;;;;;;23.73;15.33;;;10.50;99.90;;;;;;4980041;28;20428;-93
2021/10/19 06:14:11;;;;;;;21.27;14.20;;;10.50;99.90;;;;;;4994727;28;20176;-93
2021/10/19 06:16:37;;;;;;;19.60;14.03;;;10.60;99.90;;;;;;4994919;28;20199;-90
2021/10/19 06:19:02;;;;;;;25.77;15.03;;;10.50;99.90;;;;;;4995229;28;20217;-93
2021/10/19 06:21:28;;;;;;;26.00;15.47;;;10.60;99.90;;;;;;4978047;28;20169;-92
2021/10/19 06:23:53;;;;;;;30.53;15.90;;;10.60;99.90;;;;;;4995082;28;20277;-93
2021/10/19 06:26:19;;;;;;;26.73;16.37;;;10.60;99.90;;;;;;4994642;28;20173;-94
2021/10/19 06:28:44;;;;;;;26.03;15.40;;;10.70;99.90;;;;;;4995074;28;20172;-93
2021/10/19 06:31:10;;;;;;;22.87;14.17;;;10.70;99.90;;;;;;4995750;28;20175;-94
2021/10/19 06:33:36;;;;;;;25.10;15.57;;;10.70;99.90;;;;;;4994826;28;20308;-93
2021/10/19 06:36:04;;;;;;;25.73;16.53;;;10.70;99.90;;;;;;4994824;28;20164;-94
2021/10/19 06:38:30;;;;;;;24.60;14.17;;;10.80;99.90;;;;;;4996029;28;20531;-93
2021/10/19 06:40:55;;;;;;;28.20;15.60;;;10.80;99.90;;;;;;4979083;28;20438;-94
2021/10/19 06:43:21;;;;;;;23.90;15.90;;;10.80;99.90;;;;;;4994760;28;20226;-93
2021/10/19 06:45:46;;;;;;;23.73;15.87;;;10.90;99.90;;;;;;4994761;28;20621;-94
2021/10/19 06:48:12;;;;;;;23.20;15.43;;;11.00;99.90;;;;;;4994635;28;20176;-94
2021/10/19 06:50:38;;;;;;;24.87;16.13;;;11.00;99.90;;;;;;4994820;28;20173;-96
2021/10/19 06:53:03;;;;;;;28.43;16.80;;;11.10;99.90;;;;;;4995995;28;20168;-95
2021/10/19 06:55:29;;;;;;;23.97;15.70;;;11.00;99.90;;;;;;4994888;28;20664;-91
2021/10/19 06:57:55;;;;;;;24.30;15.90;;;11.10;99.90;;;;;;4994105;28;20207;-90
2021/10/19 07:00:21;;;;;;;19.53;13.10;;;11.00;99.90;;;;;;4994262;28;20159;-93
2021/10/19 07:02:47;;;;;;;18.50;12.23;;;11.10;99.90;;;;;;4994791;28;20946;-92
2021/10/19 07:05:13;;;;;;;16.70;11.70;;;11.10;99.90;;;;;;4995709;28;20176;-89
2021/10/19 07:07:41;;;;;;;18.70;12.17;;;11.10;99.90;;;;;;4997869;28;20223;-95
2021/10/19 07:10:07;;;;;;;17.77;12.90;;;;;;;;;;4998392;28;20803;-94
2021/10/19 07:12:36;;;;;;;21.70;14.70;;;11.10;99.90;;;;;;4982561;28;20435;-91
2021/10/19 07:15:02;;;;;;;20.43;14.27;;;11.20;99.90;;;;;;4981021;28;20423;-89
2021/10/19 07:17:28;;;;;;;20.13;13.43;;;11.30;99.90;;;;;;4998391;28;20431;-93
2021/10/19 07:19:55;;;;;;;18.67;13.10;;;11.30;99.90;;;;;;4981378;28;20431;-90
2021/10/19 07:22:21;;;;;;;19.37;13.20;;;11.40;99.90;;;;;;4997890;28;20191;-94
2021/10/19 07:24:47;;;;;;;16.10;11.33;;;11.50;99.90;;;;;;4997997;28;20416;-94
2021/10/19 07:27:15;;;;;;;17.33;12.83;;;11.50;99.90;;;;;;4981578;28;20172;-87
2021/10/19 07:29:41;;;;;;;19.27;13.77;;;11.50;99.90;;;;;;5000194;28;20166;-95
2021/10/19 07:32:06;;;;;;;19.97;12.30;;;11.60;99.90;;;;;;4998359;28;20447;-95
2021/10/19 07:34:32;;;;;;;25.80;13.83;;;11.60;99.90;;;;;;4997839;28;20202;-90
2021/10/19 07:36:58;;;;;;;16.40;11.70;;;11.70;99.90;;;;;;4997733;28;20653;-95
2021/10/19 07:39:23;;;;;;;21.67;13.50;;;11.60;99.90;;;;;;4997532;28;20219;-92
2021/10/19 07:41:49;;;;;;;18.40;12.60;;;11.70;99.90;;;;;;4998426;28;20206;-91
2021/10/19 07:44:15;;;;;;;16.77;11.80;;;11.60;99.90;;;;;;4996024;28;21151;-87
2021/10/19 07:46:40;;;;;;;19.53;13.20;;;11.70;99.90;;;;;;4994449;28;20181;-88
2021/10/19 07:49:08;;;;;;;19.50;13.03;;;11.80;99.90;;;;;;4996134;28;20569;-88
2021/10/19 07:51:33;;;;;;;20.27;13.17;;;11.80;99.90;;;;;;4996007;28;20177;-84
2021/10/19 07:53:59;;;;;;;18.83;12.33;;;11.90;99.90;;;;;;4995635;28;20424;-87
2021/10/19 07:56:24;;;;;;;20.07;12.50;;;12.00;99.90;;;;;;4976928;28;20181;-87
2021/10/19 07:58:50;;;;;;;21.10;12.93;;;12.20;99.90;;;;;;4994002;28;20564;-86
2021/10/19 08:01:16;;;;;;;16.50;13.40;;;12.40;99.90;;;;;;4994570;28;20180;-87
2021/10/19 08:03:42;;;;;;;17.20;12.67;;;12.60;99.90;;;;;;4995668;28;20183;-85
2021/10/19 08:06:07;;;;;;;18.47;12.90;;;12.90;99.90;;;;;;4995439;28;20418;-86
2021/10/19 08:08:35;;;;;;;20.90;12.67;;;13.10;99.90;;;;;;4995596;28;20187;-87
2021/10/19 08:11:01;;;;;;;16.83;11.67;;;13.20;99.90;;;;;;4995433;28;20171;-86
2021/10/19 08:13:27;;;;;;;15.07;11.70;;;13.50;99.90;;;;;;4995046;28;20514;-87
2021/10/19 08:15:53;;;;;;;16.60;11.73;;;13.80;99.90;;;;;;4994585;28;20505;-86
2021/10/19 08:18:18;;;;;;;17.40;11.87;;;14.00;99.90;;;;;;4995067;28;20204;-86
2021/10/19 08:20:44;;;;;;;15.00;11.13;;;;;;;;;;4995378;28;20187;-87
2021/10/19 08:23:10;;;;;;;15.13;11.30;;;;;;;;;;4995171;28;20179;-86
2021/10/19 08:25:38;;;;;;;19.00;13.10;;;;;;;;;;4995212;28;20449;-86
2021/10/19 08:28:04;;;;;;;15.13;10.80;;;;;;;;;;4977229;28;20423;-87
2021/10/19 08:30:30;;;;;;;16.30;10.93;;;;;;;;;;4977548;28;20430;-86
2021/10/19 08:32:56;;;;;;;17.07;11.10;;;;;;;;;;4977573;28;21021;-87
2021/10/19 08:35:23;;;;;;;15.20;11.10;;;;;;;;;;4995089;28;20490;-88
2021/10/19 08:37:49;;;;;;;16.00;12.67;;;;;;;;;;4994886;28;20418;-87
2021/10/19 08:40:15;;;;;;;14.50;10.13;;;;;;;;;;4994880;28;20422;-86
2021/10/19 08:42:42;;;;;;;15.40;11.87;;;;;;;;;;4995571;28;20454;-84
2021/10/19 08:45:09;;;;;;;20.00;11.90;;;;;;;;;;4973468;28;20430;-86
2021/10/19 08:47:35;;;;;;;16.30;11.93;;;;;;;;;;4970959;28;20423;-86
2021/10/19 08:50:02;;;;;;;14.87;11.27;;;;;;;;;;4973451;28;20932;-87
2021/10/19 08:52:28;;;;;;;11.90;9.37;;;;;;;;;;4975010;28;20792;-88
2021/10/19 08:54:54;;;;;;;14.03;11.10;;;;;;;;;;4974913;28;20412;-86
2021/10/19 08:57:20;;;;;;;13.60;10.90;;;;;;;;;;4974278;28;20903;-86
2021/10/19 08:59:48;;;;;;;13.77;9.53;;;;;;;;;;4973161;28;20575;-87
2021/10/19 09:02:15;;;;;;;15.63;11.30;;;;;;;;;;4973463;28;20519;-87
2021/10/19 09:04:42;;;;;;;15.23;10.47;;;;;;;;;;4974631;28;20412;-86
2021/10/19 09:07:08;;;;;;;15.00;9.70;;;;;;;;;;4974461;28;20801;-87
2021/10/19 09:09:35;;;;;;;17.83;10.03;;;;;;;;;;4974412;28;20424;-86
2021/10/19 09:12:01;;;;;;;12.27;9.63;;;;;;;;;;4974101;28;20449;-86
2021/10/19 09:14:34;;;;;;;17.33;9.90;;;;;;;;;;4974521;28;20511;-87
2021/10/19 09:17:01;;;;;;;14.37;9.97;;;;;;;;;;4974371;28;20502;-88
2021/10/19 09:19:27;;;;;;;12.87;8.73;;;;;;;;;;4974147;28;20475;-86
2021/10/19 09:22:01;;;;;;;12.97;9.70;;;;;;;;;;4974456;28;20842;-86
2021/10/19 09:24:28;;;;;;;13.13;8.97;;;;;;;;;;4974321;28;20453;-87
2021/10/19 09:26:56;;;;;;;17.10;9.77;;;;;;;;;;4973896;28;20913;-87
2021/10/19 09:29:23;;;;;;;12.27;10.23;;;;;;;;;;4974106;28;20416;-87
2021/10/19 09:32:03;;;;;;;9.53;8.30;;;14.20;99.90;;;;;;4974174;28;20466;-87
2021/10/19 09:34:32;;;;;;;11.73;8.20;;;14.30;99.90;;;;;;4974135;28;20925;-86
2021/10/19 09:36:59;;;;;;;11.50;9.27;;;14.30;99.90;;;;;;4974001;28;20422;-86
2021/10/19 09:39:33;;;;;;;13.63;9.90;;;14.30;99.90;;;;;;4974039;28;20604;-87
2021/10/19 09:42:00;;;;;;;12.60;7.50;;;14.50;99.90;;;;;;4972117;28;20474;-84
2021/10/19 09:44:26;;;;;;;10.87;7.87;;;14.70;99.90;;;;;;4973002;28;20455;-85
2021/10/19 09:46:52;;;;;;;13.53;7.90;;;;;;;;;;4972911;28;20452;-87
2021/10/19 09:49:18;;;;;;;13.10;9.23;;;;;;;;;;4973887;28;20177;-85
2021/10/19 09:51:44;;;;;;;12.23;8.50;;;;;;;;;;4973928;28;20905;-87
2021/10/19 09:54:12;;;;;;;12.20;8.90;;;;;;;;;;4972559;28;20759;-87
2021/10/19 09:56:40;;;;;;;10.70;8.53;;;;;;;;;;4973537;28;20403;-87
2021/10/19 09:59:07;;;;;;;11.80;7.17;;;;;;;;;;4973665;28;20986;-87
2021/10/19 10:01:34;;;;;;;12.33;8.27;;;;;;;;;;4972395;28;20907;-88
2021/10/19 10:04:01;;;;;;;10.00;8.23;;;;;;;;;;4972490;28;20796;-87
2021/10/19 10:06:28;;;;;;;11.50;8.70;;;;;;;;;;4973755;28;20448;-88
2021/10/19 10:08:54;;;;;;;12.77;8.50;;;;;;;;;;4973612;28;20510;-87
2021/10/19 10:11:21;;;;;;;11.43;7.93;;;;;;;;;;4972442;28;20448;-88
2021/10/19 10:14:01;;;;;;;11.03;7.23;;;;;;;;;;4971962;28;20929;-87
2021/10/19 10:16:28;;;;;;;12.60;8.03;;;;;;;;;;4973764;28;20409;-84
2021/10/19 10:18:54;;;;;;;11.90;8.30;;;;;;;;;;4973648;28;20494;-84
2021/10/19 10:21:24;;;;;;;9.70;6.63;;;15.50;99.90;;;;;;4973796;28;20766;-86
2021/10/19 10:24:02;;;;;;;9.10;6.70;;;15.60;99.90;;;;;;4973670;28;20913;-86
2021/10/19 10:26:31;;;;;;;11.50;7.50;;;15.70;99.90;;;;;;4973644;28;20507;-86
2021/10/19 10:29:14;;;;;;;11.87;8.00;;;15.90;99.90;;;;;;4973684;28;20487;-86
2021/10/19 10:31:52;;;;;;;8.90;6.70;;;15.80;99.90;;;;;;4973738;28;20416;-84
2021/10/19 10:34:32;;;;;;;9.77;7.47;;;15.70;99.90;;;;;;4973616;28;20414;-87
2021/10/19 10:37:11;;;;;;;7.47;6.40;;;15.70;99.90;;;;;;4972455;28;20801;-88
2021/10/19 10:39:40;;;;;;;11.97;6.83;;;15.60;99.90;;;;;;4973050;28;20484;-87
2021/10/19 10:42:08;;;;;;;9.10;6.33;;;15.50;99.90;;;;;;4975580;28;21004;-86
2021/10/19 10:44:36;;;;;;;12.40;7.43;;;15.50;99.90;;;;;;4976086;28;20926;-87
2021/10/19 10:47:05;;;;;;;8.23;6.10;;;15.50;99.90;;;;;;4977368;28;20423;-87
2021/10/19 10:49:32;;;;;;;10.27;7.80;;;15.50;99.90;;;;;;4976247;28;20790;-87
2021/10/19 10:51:59;;;;;;;10.70;6.87;;;15.40;99.90;;;;;;4977654;28;20425;-88
2021/10/19 10:54:25;;;;;;;10.40;7.40;;;15.40;99.90;;;;;;4977518;28;20414;-87
2021/10/19 10:56:53;;;;;;;9.60;7.20;;;15.50;99.90;;;;;;4976998;28;20980;-88
2021/10/19 10:59:23;;;;;;;13.07;8.67;;;15.50;99.90;;;;;;4976030;28;20219;-87
2021/10/19 11:01:49;;;;;;;7.60;5.27;;;15.60;99.90;;;;;;4977179;28;20923;-87
2021/10/19 11:04:14;;;;;;;10.13;7.63;;;15.50;99.90;;;;;;4984211;28;20434;-86
2021/10/19 11:06:41;;;;;;;9.97;6.90;;;15.60;99.90;;;;;;4996220;28;20178;-88
2021/10/19 11:09:12;;;;;;;12.70;7.93;;;15.50;99.90;;;;;;4996317;28;20226;-88
2021/10/19 11:11:39;;;;;;;12.27;7.40;;;15.60;99.90;;;;;;4996008;28;20415;-87
2021/10/19 11:14:16;;;;;;;12.00;8.03;;;15.30;99.90;;;;;;4996306;28;20511;-88
2021/10/19 11:16:52;;;;;;;9.23;7.60;;;15.40;99.90;;;;;;4975801;28;20801;-89
2021/10/19 11:19:23;;;;;;;11.60;7.00;;;15.60;99.90;;;;;;4975834;28;20479;-87
2021/10/19 11:21:54;;;;;;;8.10;6.20;;;15.40;99.90;;;;;;4994760;28;20434;-86
2021/10/19 11:24:22;;;;;;;9.23;6.70;;;15.40;99.90;;;;;;4994704;28;20419;-87
2021/10/19 11:26:48;;;;;;;9.63;6.03;;;15.50;99.90;;;;;;4994162;28;20418;-88
2021/10/19 11:29:15;;;;;;;9.03;6.10;;;15.60;99.90;;;;;;4993962;28;20420;-87
2021/10/19 11:31:44;;;;;;;12.97;6.90;;;15.20;99.90;;;;;;4975934;28;20413;-88
2021/10/19 11:34:10;;;;;;;8.80;6.80;;;15.20;99.90;;;;;;4994416;28;20953;-86
2021/10/19 11:36:37;;;;;;;9.30;7.53;;;15.60;99.90;;;;;;4994752;28;20500;-87
2021/10/19 11:39:11;;;;;;;9.80;7.30;;;15.40;99.90;;;;;;4990812;28;20623;-87
2021/10/19 11:41:38;;;;;;;10.43;6.73;;;15.30;99.90;;;;;;4976627;28;20486;-88
2021/10/19 11:44:06;;;;;;;7.17;6.37;;;15.20;99.90;;;;;;4992324;28;20445;-88
2021/10/19 11:46:35;;;;;;;9.43;6.47;;;15.40;99.90;;;;;;4977490;28;20431;-88
2021/10/19 11:49:07;;;;;;;9.03;6.47;;;15.60;99.90;;;;;;4995850;28;20408;-94
2021/10/19 11:51:35;;;;;;;7.20;5.17;;;15.70;99.90;;;;;;4980481;28;20462;-90
2021/10/19 11:54:03;;;;;;;10.03;6.63;;;15.60;99.90;;;;;;4978279;28;20419;-89
2021/10/19 11:56:30;;;;;;;13.37;7.00;;;15.40;99.90;;;;;;4977297;28;20474;-90
2021/10/19 11:59:02;;;;;;;9.47;5.53;;;15.40;99.90;;;;;;4980380;28;20531;-87
2021/10/19 12:01:28;;;;;;;7.50;5.47;;;15.60;99.90;;;;;;4975234;28;20419;-87
2021/10/19 12:03:59;;;;;;;7.53;6.03;;;15.60;99.90;;;;;;4997393;28;20474;-85
2021/10/19 12:06:30;;;;;;;9.07;5.87;;;15.50;99.90;;;;;;4974727;28;20443;-91
2021/10/19 12:08:57;;;;;;;8.00;5.73;;;15.40;99.90;;;;;;4977148;28;20453;-88
2021/10/19 12:11:28;;;;;;;10.57;7.03;;;15.20;99.90;;;;;;4976740;28;20499;-90
2021/10/19 12:13:58;;;;;;;7.80;6.20;;;15.20;99.90;;;;;;4994175;28;20469;-88
2021/10/19 12:16:28;;;;;;;7.03;5.50;;;15.50;99.90;;;;;;4994044;28;20820;-88
2021/10/19 12:18:58;;;;;;;6.83;5.50;;;15.10;99.90;;;;;;4994106;28;20553;-86
2021/10/19 12:21:26;;;;;;;7.50;6.47;;;15.30;99.90;;;;;;4976385;28;20430;-86
2021/10/19 12:23:54;;;;;;;6.70;5.00;;;15.30;99.90;;;;;;4978567;28;20419;-87
2021/10/19 12:26:29;;;;;;;7.13;5.67;;;15.30;99.90;;;;;;4978715;28;20416;-87
2021/10/19 12:28:57;;;;;;;9.20;6.57;;;15.30;99.90;;;;;;4993167;28;20784;-86
2021/10/19 12:31:24;;;;;;;8.67;6.13;;;15.40;99.90;;;;;;4989970;28;20452;-86
2021/10/19 12:34:06;;;;;;;8.00;6.70;;;15.40;99.90;;;;;;4993799;28;20428;-87
2021/10/19 12:36:39;;;;;;;6.97;5.33;;;15.30;99.90;;;;;;4975892;28;20415;-87
2021/10/19 12:39:13;;;;;;;7.53;6.20;;;15.30;99.90;;;;;;4993345;28;20497;-87
2021/10/19 12:41:38;;;;;;;8.83;6.47;;;15.60;99.90;;;;;;4990601;28;20415;-86
2021/10/19 12:44:04;;;;;;;7.80;6.70;;;15.50;99.90;;;;;;4993178;28;20416;-88
2021/10/19 12:46:30;;;;;;;8.50;6.07;;;15.50;99.90;;;;;;4987178;28;20181;-86
2021/10/19 12:49:02;;;;;;;5.73;5.10;;;;;;;;;;4993095;28;20173;-86
2021/10/19 12:51:28;;;;;;;9.40;6.57;;;15.40;99.90;;;;;;4993513;28;20223;-85